createdAt,value
2023-04-16T00:02:08.919Z,11.51
2023-04-16T00:04:35.711Z,11.56
2023-04-16T00:07:02.524Z,11.53
2023-04-16T00:09:29.166Z,11.54
2023-04-16T00:11:56.171Z,11.50
2023-04-16T00:14:22.776Z,11.49
2023-04-16T00:16:49.450Z,11.40
2023-04-16T00:19:20.963Z,11.61
2023-04-16T00:21:50.210Z,11.61
2023-04-16T00:24:16.871Z,11.61
2023-04-16T00:26:45.269Z,11.58
2023-04-16T00:29:12.512Z,11.51
2023-04-16T00:31:39.147Z,11.61
2023-04-16T00:34:05.887Z,11.61
2023-04-16T00:36:32.519Z,11.60
2023-04-16T00:38:59.116Z,11.60
2023-04-16T00:41:26.306Z,11.49
2023-04-16T00:43:53.295Z,11.57
2023-04-16T00:46:23.659Z,11.60
2023-04-16T00:48:51.759Z,11.55
2023-04-16T00:51:19.204Z,11.54
2023-04-16T00:53:46.670Z,11.53
2023-04-16T00:56:17.528Z,11.47
2023-04-16T00:58:44.935Z,11.48
2023-04-16T01:01:11.769Z,11.42
2023-04-16T01:03:41.293Z,11.52
2023-04-16T01:06:08.214Z,11.44
2023-04-16T01:08:34.891Z,11.50
2023-04-16T01:11:04.803Z,11.43
2023-04-16T01:13:34.171Z,11.50
2023-04-16T01:16:01.371Z,11.50
2023-04-16T01:18:28.053Z,11.35
2023-04-16T01:20:57.074Z,11.50
2023-04-16T01:23:23.750Z,11.41
2023-04-16T01:25:50.359Z,11.36
2023-04-16T01:28:17.102Z,11.41
2023-04-16T01:30:46.244Z,11.43
2023-04-16T01:33:14.400Z,11.49
2023-04-16T01:35:42.224Z,11.48
2023-04-16T01:38:11.502Z,11.48
2023-04-16T01:40:38.254Z,11.39
2023-04-16T01:43:07.730Z,11.39
2023-04-16T01:45:38.802Z,11.34
2023-04-16T01:48:05.755Z,11.40
2023-04-16T01:50:32.474Z,11.39
2023-04-16T01:52:59.141Z,11.41
2023-04-16T01:55:25.891Z,11.40
2023-04-16T01:57:54.752Z,11.42
2023-04-16T02:00:23.697Z,11.40
2023-04-16T02:02:50.528Z,11.37
2023-04-16T02:05:17.273Z,11.33
2023-04-16T02:07:46.132Z,11.31
2023-04-16T02:10:12.764Z,11.32
2023-04-16T02:12:39.444Z,11.35
2023-04-16T02:15:06.618Z,11.33
2023-04-16T02:17:33.254Z,11.34
2023-04-16T02:20:05.696Z,11.27
2023-04-16T02:22:35.451Z,11.30
2023-04-16T02:25:04.296Z,11.19
2023-04-16T02:27:33.216Z,11.21
2023-04-16T02:30:04.393Z,11.18
2023-04-16T02:32:31.295Z,11.22
2023-04-16T02:34:57.922Z,11.14
2023-04-16T02:37:25.970Z,11.26
2023-04-16T02:39:53.502Z,11.29
2023-04-16T02:42:20.109Z,11.08
2023-04-16T02:44:46.771Z,11.30
2023-04-16T02:47:13.386Z,11.28
2023-04-16T02:49:40.000Z,11.23
2023-04-16T02:52:06.618Z,11.23
2023-04-16T02:54:33.192Z,11.18
2023-04-16T02:56:59.800Z,11.11
2023-04-16T02:59:28.815Z,11.09
2023-04-16T03:01:55.695Z,11.05
2023-04-16T03:04:22.456Z,11.02
2023-04-16T03:06:49.376Z,10.92
2023-04-16T03:09:16.146Z,10.99
2023-04-16T03:11:42.720Z,10.92
2023-04-16T03:14:09.490Z,10.95
2023-04-16T03:16:38.556Z,10.98
2023-04-16T03:19:05.177Z,11.06
2023-04-16T03:21:31.968Z,11.04
2023-04-16T03:23:58.584Z,11.06
2023-04-16T03:26:25.307Z,11.02
2023-04-16T03:28:51.967Z,11.00
2023-04-16T03:31:18.660Z,10.99
2023-04-16T03:33:45.838Z,10.88
2023-04-16T03:36:14.633Z,10.87
2023-04-16T03:38:43.655Z,10.94
2023-04-16T03:41:10.275Z,10.90
2023-04-16T03:43:36.902Z,10.77
2023-04-16T03:46:03.661Z,10.85
2023-04-16T03:48:30.553Z,10.79
2023-04-16T03:50:57.219Z,10.77
2023-04-16T03:53:23.903Z,10.78
2023-04-16T03:55:54.108Z,10.84
2023-04-16T03:58:21.209Z,10.85
2023-04-16T04:00:47.899Z,10.84
2023-04-16T04:03:22.427Z,10.94
2023-04-16T04:05:49.164Z,10.87
2023-04-16T04:08:15.867Z,10.97
2023-04-16T04:10:42.437Z,10.99
2023-04-16T04:13:11.449Z,11.03
2023-04-16T04:15:38.091Z,10.87
2023-04-16T04:18:04.728Z,11.04
2023-04-16T04:20:31.391Z,11.02
2023-04-16T04:22:58.220Z,10.97
2023-04-16T04:25:25.153Z,11.01
2023-04-16T04:27:51.796Z,10.96
2023-04-16T04:30:18.442Z,10.77
2023-04-16T04:32:45.114Z,10.94
2023-04-16T04:35:11.756Z,10.97
2023-04-16T04:37:38.458Z,10.95
2023-04-16T04:40:05.728Z,10.99
2023-04-16T04:42:34.553Z,11.00
2023-04-16T04:45:01.160Z,10.80
2023-04-16T04:47:27.755Z,10.99
2023-04-16T04:49:54.397Z,11.02
2023-04-16T04:52:21.086Z,11.02
2023-04-16T04:54:47.678Z,11.02
2023-04-16T04:57:14.369Z,10.98
2023-04-16T04:59:41.220Z,10.90
2023-04-16T05:02:07.987Z,11.00
2023-04-16T05:04:34.755Z,11.02
2023-04-16T05:07:02.501Z,11.01
2023-04-16T05:09:31.545Z,11.03
2023-04-16T05:11:58.468Z,11.03
2023-04-16T05:14:25.112Z,10.87
2023-04-16T05:16:51.689Z,10.84
2023-04-16T05:19:20.632Z,10.89
2023-04-16T05:21:47.257Z,11.03
2023-04-16T05:24:14.974Z,11.06
2023-04-16T05:26:46.591Z,11.08
2023-04-16T05:29:13.220Z,10.97
2023-04-16T05:31:39.975Z,11.16
2023-04-16T05:34:06.577Z,11.10
2023-04-16T05:36:33.161Z,11.07
2023-04-16T05:38:59.794Z,11.27
2023-04-16T05:41:26.409Z,11.29
2023-04-16T05:43:52.982Z,11.14
2023-04-16T05:46:19.685Z,11.18
2023-04-16T05:48:48.551Z,11.32
2023-04-16T05:51:17.524Z,11.47
2023-04-16T05:53:44.149Z,11.51
2023-04-16T05:56:10.770Z,11.54
2023-04-16T05:58:42.173Z,11.57
2023-04-16T06:01:08.792Z,11.50
2023-04-16T06:03:35.852Z,11.65
2023-04-16T06:06:04.928Z,11.65
2023-04-16T06:08:31.734Z,11.70
2023-04-16T06:11:00.893Z,11.70
2023-04-16T06:13:27.455Z,11.75
2023-04-16T06:15:54.214Z,11.58
2023-04-16T06:18:23.550Z,11.78
2023-04-16T06:20:50.349Z,11.76
2023-04-16T06:23:21.853Z,11.79
2023-04-16T06:25:48.586Z,11.83
2023-04-16T06:28:15.375Z,11.86
2023-04-16T06:30:43.992Z,11.95
2023-04-16T06:33:11.366Z,12.04
2023-04-16T06:35:37.971Z,12.06
2023-04-16T06:38:04.589Z,12.11
2023-04-16T06:40:31.313Z,12.13
2023-04-16T06:42:57.893Z,12.20
2023-04-16T06:45:24.812Z,12.18
2023-04-16T06:47:52.473Z,12.29
2023-04-16T06:50:19.227Z,12.30
2023-04-16T06:52:46.380Z,12.34
2023-04-16T06:55:15.597Z,12.23
2023-04-16T06:57:44.287Z,12.47
2023-04-16T07:00:11.949Z,12.51
2023-04-16T07:02:38.703Z,12.57
2023-04-16T07:05:05.902Z,12.47
2023-04-16T07:07:34.792Z,12.65
2023-04-16T07:10:01.369Z,12.58
2023-04-16T07:12:28.162Z,12.81
2023-04-16T07:14:54.764Z,12.88
2023-04-16T07:17:23.740Z,12.99
2023-04-16T07:19:53.184Z,13.03
2023-04-16T07:22:24.927Z,12.98
2023-04-16T07:24:51.512Z,13.03
2023-04-16T07:27:20.506Z,13.09
2023-04-16T07:29:47.155Z,13.14
2023-04-16T07:32:15.436Z,13.10
2023-04-16T07:34:44.879Z,13.00
2023-04-16T07:37:11.482Z,13.15
2023-04-16T07:39:38.074Z,13.21
2023-04-16T07:42:04.791Z,13.37
2023-04-16T07:44:31.721Z,13.39
2023-04-16T07:46:58.567Z,13.50
2023-04-16T07:49:27.363Z,13.53
2023-04-16T07:51:53.987Z,13.58
2023-04-16T07:54:20.951Z,13.58
2023-04-16T07:56:49.991Z,13.71
2023-04-16T07:59:22.817Z,13.69
2023-04-16T08:01:52.373Z,13.81
2023-04-16T08:04:24.833Z,13.81
2023-04-16T08:06:52.394Z,13.79
2023-04-16T08:09:23.764Z,13.78
2023-04-16T08:11:50.942Z,13.83
2023-04-16T08:14:20.018Z,13.82
2023-04-16T08:16:49.342Z,13.78
2023-04-16T08:19:16.222Z,13.74
2023-04-16T08:21:45.216Z,13.80
2023-04-16T08:24:12.026Z,13.67
2023-04-16T08:26:38.767Z,13.80
2023-04-16T08:29:07.900Z,13.68
2023-04-16T08:31:34.741Z,13.88
2023-04-16T08:34:03.810Z,13.92
2023-04-16T08:36:31.421Z,13.92
2023-04-16T08:38:58.312Z,13.80
2023-04-16T08:41:27.066Z,14.01
2023-04-16T08:44:02.458Z,13.93
2023-04-16T08:46:29.984Z,14.13
2023-04-16T08:49:01.128Z,14.12
2023-04-16T08:51:32.475Z,14.13
2023-04-16T08:54:12.075Z,14.14
2023-04-16T08:56:43.072Z,14.22
2023-04-16T08:59:10.240Z,14.31
2023-04-16T09:01:39.104Z,14.38
2023-04-16T09:04:07.357Z,14.50
2023-04-16T09:06:36.628Z,14.58
2023-04-16T09:09:05.788Z,14.64
2023-04-16T09:11:32.584Z,14.78
2023-04-16T09:14:02.053Z,14.97
2023-04-16T09:16:33.588Z,15.10
2023-04-16T09:19:00.425Z,15.31
2023-04-16T09:21:28.066Z,15.05
2023-04-16T09:23:55.312Z,15.32
2023-04-16T09:26:22.734Z,15.42
2023-04-16T09:28:51.970Z,15.57
2023-04-16T09:31:19.876Z,15.57
2023-04-16T09:34:06.092Z,15.59
2023-04-16T09:36:33.829Z,15.61
2023-04-16T09:39:00.774Z,15.61
2023-04-16T09:41:33.311Z,15.74
2023-04-16T09:44:05.223Z,15.87
2023-04-16T09:46:35.645Z,15.98
2023-04-16T09:49:10.390Z,16.12
2023-04-16T09:51:38.378Z,16.22
2023-04-16T09:54:05.861Z,16.31
2023-04-16T09:56:40.212Z,16.30
2023-04-16T09:59:07.099Z,16.16
2023-04-16T10:01:36.067Z,16.30
2023-04-16T10:04:06.940Z,16.27
2023-04-16T10:06:33.803Z,16.29
2023-04-16T10:09:00.469Z,16.22
2023-04-16T10:11:32.973Z,16.35
2023-04-16T10:13:59.622Z,16.24
2023-04-16T10:16:26.794Z,16.46
2023-04-16T10:18:54.469Z,16.54
2023-04-16T10:21:21.627Z,16.67
2023-04-16T10:23:54.145Z,16.82
2023-04-16T10:26:21.936Z,16.90
2023-04-16T10:28:48.765Z,17.02
2023-04-16T10:31:15.816Z,17.15
2023-04-16T10:33:46.293Z,17.17
2023-04-16T10:36:15.100Z,17.24
2023-04-16T10:38:46.389Z,17.31
2023-04-16T10:41:13.648Z,17.38
2023-04-16T10:43:47.611Z,17.45
2023-04-16T10:46:26.814Z,17.48
2023-04-16T10:48:57.453Z,17.48
2023-04-16T10:51:31.766Z,17.26
2023-04-16T10:54:19.445Z,17.52
2023-04-16T10:56:46.960Z,17.51
2023-04-16T10:59:13.909Z,17.55
2023-04-16T11:01:45.519Z,17.58
2023-04-16T11:04:22.072Z,17.64
2023-04-16T11:07:17.108Z,17.73
2023-04-16T11:09:47.131Z,17.82
2023-04-16T11:12:16.176Z,17.86
2023-04-16T11:14:43.284Z,17.90
2023-04-16T11:17:10.307Z,17.96
2023-04-16T11:19:39.833Z,18.01
2023-04-16T11:22:06.664Z,18.07
2023-04-16T11:24:36.194Z,18.17
2023-04-16T11:27:03.231Z,18.24
2023-04-16T11:29:29.853Z,18.56
2023-04-16T11:31:56.592Z,18.79
2023-04-16T11:34:23.320Z,18.79
2023-04-16T11:36:51.773Z,19.30
2023-04-16T11:39:21.565Z,19.46
2023-04-16T11:41:49.962Z,19.63
2023-04-16T11:44:17.412Z,19.66
2023-04-16T11:46:44.197Z,19.77
2023-04-16T11:49:15.646Z,19.93
2023-04-16T11:51:44.335Z,19.98
2023-04-16T11:54:19.550Z,20.05
2023-04-16T11:56:48.006Z,20.10
2023-04-16T11:59:17.701Z,20.12
2023-04-16T12:01:57.520Z,20.13
2023-04-16T12:04:29.578Z,20.17
2023-04-16T12:07:12.826Z,20.18
2023-04-16T12:09:41.717Z,20.19
2023-04-16T12:12:27.483Z,20.26
2023-04-16T12:14:56.979Z,20.12
2023-04-16T12:17:26.367Z,20.13
2023-04-16T12:19:56.858Z,20.20
2023-04-16T12:22:46.909Z,20.26
2023-04-16T12:25:14.895Z,20.32
2023-04-16T12:27:54.071Z,20.32
2023-04-16T12:30:26.524Z,20.38
2023-04-16T12:33:18.538Z,20.44
2023-04-16T12:35:47.970Z,20.41
2023-04-16T12:38:17.543Z,20.27
2023-04-16T12:40:44.532Z,20.31
2023-04-16T12:43:11.271Z,20.51
2023-04-16T12:45:39.304Z,20.56
2023-04-16T12:48:09.359Z,20.54
2023-04-16T12:50:39.841Z,20.58
2023-04-16T12:53:06.669Z,20.61
2023-04-16T12:55:36.109Z,20.55
2023-04-16T12:58:02.840Z,20.73
2023-04-16T13:00:29.465Z,20.68
2023-04-16T13:02:56.266Z,20.90
2023-04-16T13:05:22.997Z,20.90
2023-04-16T13:07:52.044Z,20.80
2023-04-16T13:10:21.101Z,20.83
2023-04-16T13:12:47.864Z,20.90
2023-04-16T13:15:17.005Z,20.93
2023-04-16T13:17:45.066Z,20.71
2023-04-16T13:20:11.892Z,20.84
2023-04-16T13:22:42.784Z,20.62
2023-04-16T13:25:09.971Z,20.63
2023-04-16T13:27:36.629Z,20.68
2023-04-16T13:30:03.414Z,20.82
2023-04-16T13:32:30.107Z,20.84
2023-04-16T13:34:56.837Z,20.76
2023-04-16T13:37:25.971Z,20.84
2023-04-16T13:39:52.655Z,20.86
2023-04-16T13:42:19.283Z,20.88
2023-04-16T13:44:48.970Z,20.84
2023-04-16T13:47:16.174Z,20.91
2023-04-16T13:49:42.830Z,20.95
2023-04-16T13:52:09.466Z,20.90
2023-04-16T13:54:38.712Z,20.85
2023-04-16T13:57:05.361Z,20.78
2023-04-16T13:59:32.037Z,20.79
2023-04-16T14:02:00.798Z,20.73
2023-04-16T14:04:27.482Z,20.72
2023-04-16T14:06:54.238Z,20.69
2023-04-16T14:09:23.467Z,20.52
2023-04-16T14:11:51.083Z,20.47
2023-04-16T14:14:17.731Z,20.42
2023-04-16T14:16:44.646Z,20.34
2023-04-16T14:19:11.686Z,20.33
2023-04-16T14:21:38.519Z,20.27
2023-04-16T14:24:09.224Z,20.17
2023-04-16T14:26:36.049Z,20.16
2023-04-16T14:29:02.712Z,20.10
2023-04-16T14:31:29.441Z,20.13
2023-04-16T14:33:56.029Z,19.92
2023-04-16T14:36:23.312Z,20.01
2023-04-16T14:38:49.946Z,19.87
2023-04-16T14:41:18.867Z,19.92
2023-04-16T14:43:45.579Z,19.76
2023-04-16T14:46:12.479Z,19.86
2023-04-16T14:48:41.520Z,19.79
2023-04-16T14:51:08.735Z,19.59
2023-04-16T14:53:37.634Z,19.67
2023-04-16T14:56:05.972Z,19.67
2023-04-16T14:58:32.723Z,19.65
2023-04-16T15:00:59.521Z,19.59
2023-04-16T15:03:26.753Z,19.47
2023-04-16T15:05:56.434Z,19.54
2023-04-16T15:08:23.955Z,19.59
2023-04-16T15:10:55.971Z,19.51
2023-04-16T15:13:22.572Z,19.37
2023-04-16T15:15:49.950Z,19.46
2023-04-16T15:18:17.402Z,19.34
2023-04-16T15:20:46.415Z,19.42
2023-04-16T15:23:15.569Z,19.36
2023-04-16T15:25:46.934Z,19.21
2023-04-16T15:28:13.566Z,19.16
2023-04-16T15:30:44.555Z,19.03
2023-04-16T15:33:12.207Z,18.96
2023-04-16T15:35:41.432Z,18.74
2023-04-16T15:38:08.605Z,18.66
2023-04-16T15:40:36.542Z,18.57
2023-04-16T15:43:03.375Z,18.55
2023-04-16T15:45:30.108Z,18.45
2023-04-16T15:47:59.312Z,18.38
2023-04-16T15:50:28.517Z,18.28
2023-04-16T15:52:57.701Z,18.24
2023-04-16T15:55:24.395Z,18.16
2023-04-16T15:57:51.517Z,18.07
2023-04-16T16:00:19.067Z,17.89
2023-04-16T16:02:47.112Z,17.81
2023-04-16T16:05:17.172Z,17.89
2023-04-16T16:07:43.987Z,17.87
2023-04-16T16:10:13.028Z,17.85
2023-04-16T16:12:41.253Z,17.80
2023-04-16T16:15:11.144Z,17.71
2023-04-16T16:17:38.406Z,17.68
2023-04-16T16:20:10.546Z,17.62
2023-04-16T16:22:38.235Z,17.49
2023-04-16T16:25:05.924Z,17.56
2023-04-16T16:27:36.345Z,17.45
2023-04-16T16:30:04.805Z,17.47
2023-04-16T16:32:31.491Z,17.43
2023-04-16T16:34:58.126Z,17.50
2023-04-16T16:37:24.917Z,17.51
2023-04-16T16:39:54.064Z,17.56
2023-04-16T16:42:20.931Z,17.41
2023-04-16T16:44:50.617Z,17.49
2023-04-16T16:47:17.365Z,17.50
2023-04-16T16:49:44.692Z,17.48
2023-04-16T16:52:13.824Z,17.37
2023-04-16T16:54:40.756Z,17.36
2023-04-16T16:57:07.361Z,17.38
2023-04-16T16:59:34.068Z,17.32
2023-04-16T17:02:03.015Z,17.28
2023-04-16T17:04:31.870Z,17.14
2023-04-16T17:07:01.244Z,17.18
2023-04-16T17:09:30.704Z,17.19
2023-04-16T17:11:57.494Z,17.14
2023-04-16T17:14:26.488Z,17.20
2023-04-16T17:16:53.519Z,17.17
2023-04-16T17:19:20.165Z,17.15
2023-04-16T17:21:49.184Z,17.02
2023-04-16T17:24:15.892Z,17.13
2023-04-16T17:26:42.689Z,17.10
2023-04-16T17:29:09.482Z,17.06
2023-04-16T17:31:36.537Z,16.97
2023-04-16T17:34:05.961Z,16.90
2023-04-16T17:36:32.851Z,16.84
2023-04-16T17:38:59.498Z,16.67
2023-04-16T17:41:28.693Z,16.71
2023-04-16T17:43:55.409Z,16.62
2023-04-16T17:46:22.153Z,16.46
2023-04-16T17:48:49.007Z,16.42
2023-04-16T17:51:16.674Z,16.25
2023-04-16T17:53:43.622Z,16.26
2023-04-16T17:56:11.326Z,16.18
2023-04-16T17:58:37.965Z,16.15
2023-04-16T18:01:06.844Z,16.00
2023-04-16T18:03:37.134Z,16.06
2023-04-16T18:06:04.204Z,16.00
2023-04-16T18:08:31.266Z,15.78
2023-04-16T18:10:57.960Z,15.82
2023-04-16T18:13:27.323Z,15.86
2023-04-16T18:15:54.237Z,15.79
2023-04-16T18:18:21.481Z,15.57
2023-04-16T18:20:48.187Z,15.65
2023-04-16T18:23:14.940Z,15.53
2023-04-16T18:25:41.889Z,15.58
2023-04-16T18:28:13.874Z,15.53
2023-04-16T18:30:41.046Z,15.46
2023-04-16T18:33:38.840Z,15.34
2023-04-16T18:36:02.398Z,15.28
2023-04-16T18:38:32.144Z,15.26
2023-04-16T18:41:02.061Z,15.06
2023-04-16T18:43:28.795Z,15.11
2023-04-16T18:45:55.416Z,15.01
2023-04-16T18:48:22.348Z,14.96
2023-04-16T18:50:51.080Z,14.81
2023-04-16T18:53:17.758Z,14.83
2023-04-16T18:55:44.443Z,14.74
2023-04-16T18:58:11.108Z,14.58
2023-04-16T19:00:42.654Z,14.68
2023-04-16T19:03:11.508Z,14.61
2023-04-16T19:05:38.230Z,14.40
2023-04-16T19:08:05.188Z,14.48
2023-04-16T19:10:34.105Z,14.29
2023-04-16T19:13:03.276Z,14.39
2023-04-16T19:15:32.037Z,14.31
2023-04-16T19:17:59.903Z,14.31
2023-04-16T19:20:28.825Z,14.22
2023-04-16T19:22:55.689Z,14.27
2023-04-16T19:25:24.702Z,14.16
2023-04-16T19:27:51.687Z,14.12
2023-04-16T19:30:18.485Z,14.22
2023-04-16T19:32:47.612Z,14.21
2023-04-16T19:35:14.378Z,14.21
2023-04-16T19:37:43.594Z,14.19
2023-04-16T19:40:10.966Z,14.06
2023-04-16T19:42:37.571Z,14.16
2023-04-16T19:45:07.430Z,14.11
2023-04-16T19:47:34.078Z,13.95
2023-04-16T19:50:00.821Z,14.00
2023-04-16T19:52:27.486Z,13.87
2023-04-16T19:54:54.170Z,13.99
2023-04-16T19:57:20.774Z,13.92
2023-04-16T19:59:49.752Z,13.90
2023-04-16T20:02:16.496Z,13.83
2023-04-16T20:04:43.236Z,13.79
2023-04-16T20:07:09.918Z,13.73
2023-04-16T20:09:36.581Z,13.74
2023-04-16T20:12:05.458Z,13.71
2023-04-16T20:14:34.624Z,13.71
2023-04-16T20:17:03.557Z,13.71
2023-04-16T20:19:31.548Z,13.65
2023-04-16T20:21:58.161Z,13.61
2023-04-16T20:24:25.032Z,13.46
2023-04-16T20:26:51.680Z,13.58
2023-04-16T20:29:18.429Z,13.45
2023-04-16T20:31:48.717Z,13.42
2023-04-16T20:34:15.378Z,13.53
2023-04-16T20:36:44.344Z,13.47
2023-04-16T20:39:11.770Z,13.44
2023-04-16T20:41:43.826Z,13.42
2023-04-16T20:44:18.118Z,13.39
2023-04-16T20:46:49.477Z,13.35
2023-04-16T20:49:18.519Z,13.25
2023-04-16T20:51:45.181Z,13.22
2023-04-16T20:54:16.437Z,13.25
2023-04-16T20:56:45.963Z,13.18
2023-04-16T20:59:13.498Z,13.26
2023-04-16T21:01:40.245Z,13.26
2023-04-16T21:04:09.659Z,13.30
2023-04-16T21:06:43.238Z,13.25
2023-04-16T21:09:13.168Z,13.21
2023-04-16T21:11:39.983Z,13.30
2023-04-16T21:14:06.902Z,13.31
2023-04-16T21:16:33.574Z,13.25
2023-04-16T21:19:02.371Z,13.32
2023-04-16T21:21:29.305Z,13.22
2023-04-16T21:23:58.474Z,13.20
2023-04-16T21:26:25.239Z,13.23
2023-04-16T21:28:53.305Z,13.19
2023-04-16T21:31:21.772Z,13.14
2023-04-16T21:33:50.818Z,13.16
2023-04-16T21:36:17.452Z,12.86
2023-04-16T21:38:46.564Z,12.98
2023-04-16T21:41:13.204Z,13.14
2023-04-16T21:43:42.001Z,12.92
2023-04-16T21:46:08.782Z,13.03
2023-04-16T21:48:35.581Z,13.00
2023-04-16T21:51:10.146Z,12.87
2023-04-16T21:53:38.775Z,12.89
2023-04-16T21:56:06.491Z,12.89
2023-04-16T21:58:33.151Z,12.92
2023-04-16T22:01:04.593Z,12.97
2023-04-16T22:03:31.432Z,12.93
2023-04-16T22:06:00.928Z,12.92
2023-04-16T22:08:29.265Z,12.92
2023-04-16T22:11:00.169Z,12.94
2023-04-16T22:13:32.610Z,12.92
2023-04-16T22:16:02.901Z,12.90
2023-04-16T22:18:32.957Z,12.88
2023-04-16T22:21:00.377Z,12.86
2023-04-16T22:23:27.167Z,12.84
2023-04-16T22:25:56.414Z,12.68
2023-04-16T22:28:23.610Z,12.81
2023-04-16T22:30:50.549Z,12.79
2023-04-16T22:33:17.570Z,12.72
2023-04-16T22:35:44.749Z,12.72
2023-04-16T22:38:11.466Z,12.72
2023-04-16T22:40:38.136Z,12.65
2023-04-16T22:43:07.120Z,12.60
2023-04-16T22:45:34.716Z,12.70
2023-04-16T22:48:01.354Z,12.68
2023-04-16T22:50:28.620Z,12.67
2023-04-16T22:53:00.112Z,12.63
2023-04-16T22:55:29.025Z,12.62
2023-04-16T22:57:55.656Z,12.61
2023-04-16T23:00:25.046Z,12.60
2023-04-16T23:02:53.979Z,12.56
2023-04-16T23:05:22.890Z,12.47
2023-04-16T23:07:49.510Z,12.49
2023-04-16T23:10:16.302Z,12.43
2023-04-16T23:12:45.551Z,12.46
2023-04-16T23:15:12.264Z,12.29
2023-04-16T23:17:43.733Z,12.44
2023-04-16T23:20:13.386Z,12.36
2023-04-16T23:22:41.115Z,12.40
2023-04-16T23:25:15.501Z,12.37
2023-04-16T23:27:42.184Z,12.40
2023-04-16T23:30:11.506Z,12.30
2023-04-16T23:32:38.405Z,12.36
2023-04-16T23:35:05.697Z,12.34
2023-04-16T23:37:34.544Z,12.27
2023-04-16T23:40:04.695Z,12.37
2023-04-16T23:42:31.308Z,12.32
2023-04-16T23:45:02.759Z,12.33
2023-04-16T23:47:29.412Z,12.30
2023-04-16T23:49:58.529Z,12.27
2023-04-16T23:52:25.173Z,12.27
2023-04-16T23:54:51.864Z,12.18
2023-04-16T23:57:19.219Z,12.21
2023-04-16T23:59:48.218Z,12.03
